Time;durP1;ratioP1;P1;durP2;ratioP2;P2;SDS_P1;SDS_P2;PMS_P1;PMS_P2;Temp;Humidity;BMP_temperature;BMP_pressure;BME280_temperature;BME280_humidity;BME280_pressure;Samples;Min_cycle;Max_cycle;Signal;HPM_P1;HPM_P2
2021/11/17 02:27:57;;;;;;;;;;;;;;;-4.14;70.04;100941.47;1771517;80;21489;-57
2021/11/17 02:30:58;;;;;;;37.48;19.82;;;;;;;-4.14;70.10;100938.48;1756460;80;21844;-58
2021/11/17 02:34:04;;;;;;;35.17;20.75;;;;;;;-4.13;69.24;100930.35;1758402;79;21537;-57
2021/11/17 02:37:11;;;;;;;36.60;20.45;;;;;;;-4.18;68.70;100930.58;1766989;80;21538;-58
2021/11/17 02:40:13;;;;;;;37.33;19.80;;;;;;;-4.23;68.33;100926.57;1753568;80;21407;-58
2021/11/17 02:43:05;;;;;;;31.40;19.85;;;;;;;-4.28;67.91;100932.35;1754545;80;20998;-59
2021/11/17 02:45:55;;;;;;;31.10;19.35;;;;;;;-4.33;67.58;100929.20;1760053;80;21870;-59
2021/11/17 02:48:47;;;;;;;35.08;20.35;;;;;;;-4.35;67.28;100928.28;1744080;80;21592;-58
2021/11/17 02:51:29;;;;;;;38.63;20.05;;;;;;;-4.40;66.94;100933.64;1761530;80;21537;-57
2021/11/17 02:54:33;;;;;;;34.48;20.17;;;;;;;-4.44;66.50;100933.06;1759807;80;21501;-57
2021/11/17 02:57:24;;;;;;;34.40;19.55;;;;;;;-4.50;66.44;100931.13;1752297;80;21601;-57
2021/11/17 03:00:36;;;;;;;35.70;19.37;;;;;;;-4.55;66.46;100926.22;1753679;80;21403;-58
2021/11/17 03:03:17;;;;;;;37.95;19.80;;;;;;;-4.55;66.69;100921.08;1760680;80;21608;-58
2021/11/17 03:06:16;;;;;;;32.50;18.55;;;;;;;-4.57;66.56;100925.28;1743870;80;21534;-59
2021/11/17 03:09:07;;;;;;;33.70;19.32;;;;;;;-4.58;66.78;100931.64;1753352;80;21578;-58
2021/11/17 03:11:47;;;;;;;34.75;19.67;;;;;;;-4.60;66.65;100925.57;1755175;80;21557;-58
2021/11/17 03:14:19;;;;;;;32.58;18.48;;;;;;;-4.63;66.47;100926.72;1759507;80;21858;-58
2021/11/17 03:16:58;;;;;;;33.70;19.02;;;;;;;-4.69;66.52;100924.79;1759534;80;20966;-59
2021/11/17 03:19:51;;;;;;;31.97;18.95;;;;;;;-4.73;66.59;100928.05;1749658;80;21543;-59
2021/11/17 03:22:44;;;;;;;33.65;19.67;;;;;;;-4.79;66.62;100929.11;1746879;80;21511;-58
2021/11/17 03:25:35;;;;;;;34.20;19.82;;;;;;;-4.86;66.78;100930.53;1769416;80;21432;-60
2021/11/17 03:28:31;;;;;;;34.30;18.82;;;;;;;-4.86;66.69;100928.39;1748265;80;21658;-60
2021/11/17 03:31:11;;;;;;;;;;;;;;;-4.87;66.57;100927.52;1761065;80;20958;-60
2021/11/17 03:34:01;;;;;;;32.08;18.17;;;;;;;-4.91;66.70;100926.52;1755478;80;20455;-58
2021/11/17 03:36:52;;;;;;;31.87;19.35;;;;;;;-4.91;67.04;100926.52;1758280;80;21002;-60
2021/11/17 03:39:30;;;;;;;31.10;17.67;;;;;;;-4.92;66.97;100924.75;1767470;80;21431;-57
2021/11/17 03:42:17;;;;;;;32.35;18.12;;;;;;;-4.94;66.79;100924.23;1756737;80;21494;-57
2021/11/17 03:44:55;;;;;;;30.17;18.45;;;;;;;-4.92;66.79;100921.32;1710024;80;21454;-59
2021/11/17 03:47:46;;;;;;;30.50;18.98;;;;;;;-4.94;66.36;100918.69;1760818;80;21520;-58
2021/11/17 03:50:36;;;;;;;31.55;18.00;;;;;;;-4.94;66.62;100924.23;1753580;80;21505;-58
2021/11/17 03:53:30;;;;;;;26.82;17.07;;;;;;;-4.94;66.43;100924.23;1765724;80;21489;-60
2021/11/17 03:56:20;;;;;;;28.65;17.50;;;;;;;-4.92;66.47;100926.03;1760313;80;21804;-59
2021/11/17 03:59:14;;;;;;;26.27;17.27;;;;;;;-4.94;66.38;100915.25;1753619;80;21502;-59
2021/11/17 04:02:02;;;;;;;31.05;16.85;;;;;;;-4.96;66.46;100912.62;1755290;80;21593;-58
2021/11/17 04:05:06;;;;;;;29.75;17.82;;;;;;;-4.97;66.45;100915.12;1761883;80;21507;-58
2021/11/17 04:08:03;;;;;;;30.20;18.23;;;;;;;-4.96;66.58;100918.16;1761968;80;21553;-59
2021/11/17 04:10:37;;;;;;;28.50;17.02;;;;;;;-4.96;66.39;100917.75;1759680;80;21814;-59
2021/11/17 04:13:29;;;;;;;31.05;17.57;;;;;;;-5.00;66.13;100913.73;1766951;80;21637;-59
2021/11/17 04:16:16;;;;;;;32.38;18.40;;;;;;;-4.99;65.80;100909.95;1711826;80;21466;-60
2021/11/17 04:18:54;;;;;;;26.35;16.80;;;;;;;-4.99;65.76;100903.92;1750065;80;21554;-58
2021/11/17 04:21:57;;;;;;;35.15;18.12;;;;;;;-4.99;65.55;100906.48;1766077;80;20990;-58
2021/11/17 04:24:50;;;;;;;29.18;17.98;;;;;;;-5.00;65.59;100896.64;1762658;80;22162;-58
2021/11/17 04:27:40;;;;;;;31.37;18.02;;;;;;;-5.03;65.67;100897.79;1758170;80;21403;-58
2021/11/17 04:30:24;;;;;;;33.20;18.32;;;;;;;-5.03;66.07;100896.51;1763253;80;21549;-59
2021/11/17 04:33:11;;;;;;;33.90;19.62;;;;;;;-5.03;66.45;100900.77;1758771;80;21598;-58
2021/11/17 04:35:55;;;;;;;31.10;18.85;;;;;;;-4.98;66.70;100905.27;1756170;80;21589;-58
2021/11/17 04:38:50;;;;;;;30.15;18.30;;;;;;;-4.96;66.62;100898.92;1743287;80;22129;-59
2021/11/17 04:41:31;;;;;;;31.65;17.75;;;;;;;-4.96;66.64;100896.36;1753514;80;21426;-58
2021/11/17 04:44:22;;;;;;;30.77;18.62;;;;;;;-4.92;67.44;100896.95;1750789;80;21487;-59
2021/11/17 04:47:05;;;;;;;42.35;22.90;;;;;;;-4.89;67.21;100897.08;1745763;80;20986;-57
2021/11/17 04:49:46;;;;;;;43.02;26.60;;;;;;;-4.85;68.80;100898.95;1743521;80;21669;-58
2021/11/17 04:52:18;;;;;;;46.45;30.72;;;;;;;-4.80;69.21;100894.87;1747778;80;21855;-58
2021/11/17 04:55:00;;;;;;;39.50;27.50;;;;;;;-4.78;69.16;100893.66;1760083;80;21534;-58
2021/11/17 04:57:49;;;;;;;37.90;25.45;;;;;;;-4.79;69.15;100883.78;1757351;80;21570;-59
2021/11/17 05:00:36;;;;;;;49.33;34.15;;;;;;;-4.78;69.37;100885.97;1742394;80;21538;-58
2021/11/17 05:03:09;;;;;;;;;;;;;;;-4.78;69.82;100885.55;1755627;80;21049;-57
2021/11/17 05:06:02;;;;;;;38.70;24.02;;;;;;;-4.74;69.88;100881.41;1745426;80;21867;-59
2021/11/17 05:09:08;;;;;;;26.42;17.07;;;;;;;-4.73;69.58;100885.33;1751986;80;21470;-57
2021/11/17 05:11:58;;;;;;;27.93;16.20;;;;;;;-4.72;69.69;100878.50;1743899;80;21577;-57
2021/11/17 05:14:45;;;;;;;27.40;15.23;;;;;;;-4.70;69.72;100879.42;1759328;80;20971;-57
2021/11/17 05:17:15;;;;;;;;;;;;;;;-4.67;69.63;100880.84;1757065;80;21468;-58
2021/11/17 05:19:53;;;;;;;31.33;16.25;;;;;;;-4.67;69.90;100882.13;1750683;80;21841;-57
2021/11/17 05:22:25;;;;;;;;;;;;;;;-4.63;69.95;100879.23;1712000;80;21530;-57
2021/11/17 05:25:13;;;;;;;29.55;16.07;;;;;;;-4.60;70.14;100881.52;1761160;80;20437;-58
2021/11/17 05:27:58;;;;;;;;;;;;;;;-4.58;70.04;100880.30;1755115;80;21491;-58
2021/11/17 05:30:58;;;;;;;27.98;16.23;;;;;;;-4.56;70.04;100879.94;1748312;80;20420;-59
2021/11/17 05:33:48;;;;;;;27.42;16.85;;;;;;;-4.54;70.01;100884.34;1740521;80;21809;-58
2021/11/17 05:36:41;;;;;;;29.70;17.50;;;;;;;-4.54;69.90;100883.06;1717472;80;21593;-58
2021/11/17 05:39:36;;;;;;;28.35;16.32;;;;;;;-4.52;69.93;100885.66;1748323;80;21533;-58
2021/11/17 05:42:41;;;;;;;33.35;16.45;;;;;;;-4.52;69.76;100883.09;1756900;80;21573;-58
2021/11/17 05:45:46;;;;;;;24.80;15.32;;;;;;;-4.52;70.01;100885.66;1759907;80;21510;-58
2021/11/17 05:48:27;;;;;;;23.27;14.47;;;;;;;-4.54;70.13;100888.58;1755064;80;21755;-57
2021/11/17 05:51:14;;;;;;;33.15;16.05;;;;;;;-4.59;70.28;100880.72;1747762;80;21474;-58
2021/11/17 05:54:20;;;;;;;26.75;16.27;;;;;;;-4.58;70.39;100878.59;1742535;80;21446;-58
2021/11/17 05:57:07;;;;;;;25.85;15.65;;;;;;;-4.57;70.60;100879.08;1750536;80;21488;-58
2021/11/17 05:59:58;;;;;;;31.95;15.85;;;;;;;-4.56;70.85;100873.53;1744273;80;21636;-58
2021/11/17 06:03:06;;;;;;;27.40;16.40;;;;;;;-4.58;70.99;100871.31;1752889;80;22046;-58
2021/11/17 06:05:32;;;;;;;26.80;16.73;;;;;;;-4.97;71.28;100809.94;1738898;80;21560;-58
2021/11/17 06:07:59;;;;;;;24.72;16.30;;;;;;;-4.56;71.46;100876.99;1752437;80;21427;-59
2021/11/17 06:10:34;;;;;;;31.23;17.85;;;;;;;-4.48;71.72;100877.66;1749517;80;21538;-58
2021/11/17 06:13:01;;;;;;;29.07;17.50;;;;;;;-4.45;71.73;100863.25;1741272;80;21483;-59
2021/11/17 06:15:28;;;;;;;28.17;16.80;;;;;;;-4.37;71.79;100861.87;1757774;80;22046;-59
2021/11/17 06:17:55;;;;;;;29.37;17.27;;;;;;;-4.35;71.96;100850.34;1703552;80;21554;-59
2021/11/17 06:20:24;;;;;;;25.52;16.95;;;;;;;-4.31;72.02;100857.37;1751002;80;20934;-59
2021/11/17 06:22:57;;;;;;;27.55;16.97;;;;;;;-4.26;72.57;100851.97;1757401;80;21531;-59
2021/11/17 06:25:24;;;;;;;30.12;16.95;;;;;;;-4.16;72.60;100848.93;1755284;80;21566;-59
2021/11/17 06:27:58;;;;;;;28.93;18.07;;;;;;;-4.06;72.85;100847.56;1758894;80;21942;-59
2021/11/17 06:30:25;;;;;;;28.02;17.55;;;;;;;-3.95;72.96;100854.37;1744551;80;21577;-58
2021/11/17 06:32:53;;;;;;;28.12;17.32;;;;;;;-3.83;72.89;100857.36;1761164;80;21424;-58
2021/11/17 06:35:19;;;;;;;23.18;15.32;;;;;;;-3.77;73.04;100857.59;1745944;80;21570;-59
2021/11/17 06:37:45;;;;;;;26.27;15.93;;;;;;;-3.72;73.02;100852.59;1762335;80;21493;-59
2021/11/17 06:40:15;;;;;;;27.30;15.75;;;;;;;-3.66;73.35;100855.36;1761840;80;21982;-58
2021/11/17 06:42:45;;;;;;;26.73;16.27;;;;;;;-3.55;73.54;100855.32;1772520;80;21451;-58
2021/11/17 06:45:22;;;;;;;27.10;16.95;;;;;;;-3.43;73.48;100857.41;1762356;80;21681;-60
2021/11/17 06:47:48;;;;;;;27.30;16.73;;;;;;;-3.34;73.27;100856.44;1762685;80;21074;-64
2021/11/17 06:50:16;;;;;;;27.13;17.62;;;;;;;-3.26;73.39;100866.11;1768702;78;21585;-61
2021/11/17 06:52:43;;;;;;;28.90;16.75;;;;;;;-3.17;73.18;100871.56;1756823;80;21796;-57
2021/11/17 06:55:10;;;;;;;24.50;15.90;;;;;;;-3.08;73.26;100865.84;1762883;80;21471;-58
2021/11/17 06:57:38;;;;;;;31.17;16.25;;;;;;;-3.05;73.28;100866.82;1760085;80;21478;-58
2021/11/17 07:00:11;;;;;;;24.57;15.68;;;;;;;-2.98;73.21;100867.45;1763818;80;22004;-57
2021/11/17 07:02:38;;;;;;;25.20;15.30;;;;;;;-2.93;73.19;100866.33;1760708;80;21520;-58
2021/11/17 07:05:06;;;;;;;24.43;17.13;;;;;;;-2.89;73.29;100863.02;1759017;80;21740;-60
2021/11/17 07:07:33;;;;;;;30.95;17.15;;;;;;;-2.83;73.10;100860.63;1764882;80;21493;-58
2021/11/17 07:10:00;;;;;;;29.92;16.10;;;;;;;-2.77;73.24;100861.23;1769468;80;21549;-57
2021/11/17 07:12:27;;;;;;;24.98;16.23;;;;;;;-2.66;73.13;100860.28;1757868;79;21522;-55
2021/11/17 07:14:53;;;;;;;23.20;15.83;;;;;;;-2.58;72.67;100866.52;1770397;80;21032;-56
2021/11/17 07:17:20;;;;;;;23.73;15.13;;;;;;;-2.56;72.44;100863.61;1763796;80;22029;-56
2021/11/17 07:19:46;;;;;;;25.23;15.23;;;;;;;-2.49;72.47;100866.80;1768278;80;21462;-56
2021/11/17 07:22:13;;;;;;;24.65;15.85;;;;;;;-2.39;72.15;100863.69;1764696;80;21584;-56
2021/11/17 07:24:40;;;;;;;24.40;15.40;;;;;;;-2.35;71.88;100869.38;1758153;80;21497;-60
2021/11/17 07:27:07;;;;;;;24.37;16.32;;;;;;;-2.30;71.42;100866.05;1769188;80;21649;-57
2021/11/17 07:29:35;;;;;;;25.35;15.53;;;;;;;-2.30;71.59;100865.63;1759852;80;21430;-58
2021/11/17 07:32:02;;;;;;;23.47;15.25;;;;;;;-2.21;71.65;100856.02;1760259;80;21549;-58
2021/11/17 07:34:28;;;;;;;22.42;15.63;;;;;;;-2.09;71.23;100858.95;1758621;80;21427;-57
2021/11/17 07:36:55;;;;;;;26.68;15.72;;;;;;;-2.05;71.08;100853.05;1760946;80;21640;-57
2021/11/17 07:39:21;;;;;;;26.50;15.78;;;;;;;-2.00;70.93;100857.92;1753575;80;21619;-58
2021/11/17 07:41:50;;;;;;;23.90;16.02;;;;;;;-1.97;70.83;100856.70;1754300;80;21432;-59
2021/11/17 07:44:17;;;;;;;24.87;14.53;;;;;;;-1.91;70.77;100857.70;1756556;80;21504;-57
2021/11/17 07:46:46;;;;;;;28.95;15.60;;;;;;;-1.86;70.74;100851.84;1753594;80;21597;-58
2021/11/17 07:49:13;;;;;;;25.85;16.48;;;;;;;-1.74;70.38;100850.42;1751937;80;21108;-59
2021/11/17 07:51:40;;;;;;;27.32;16.90;;;;;;;-1.68;70.37;100859.17;1757584;80;21498;-58
2021/11/17 07:54:07;;;;;;;25.77;16.50;;;;;;;-1.62;70.19;100852.02;1752919;80;21874;-56
2021/11/17 07:56:36;;;;;;;29.12;15.93;;;;;;;-1.49;69.73;100857.08;1763376;79;24692;-56
2021/11/17 07:59:05;;;;;;;29.05;16.85;;;;;;;-1.47;69.88;100855.41;1759298;79;21659;-56
2021/11/17 08:01:33;;;;;;;24.57;15.83;;;;;;;-1.38;69.79;100855.64;1758010;80;21715;-56
2021/11/17 08:04:00;;;;;;;25.77;15.53;;;;;;;-1.24;69.47;100856.88;1736205;80;21435;-58
2021/11/17 08:06:27;;;;;;;21.80;15.85;;;;;;;-1.24;69.47;100856.88;1757560;80;21839;-57
2021/11/17 08:08:54;;;;;;;25.17;15.58;;;;;;;-1.15;69.37;100854.05;1753688;80;27775;-57
2021/11/17 08:11:22;;;;;;;23.10;14.78;;;;;;;-1.10;69.32;100849.88;1764728;80;21573;-55
2021/11/17 08:13:49;;;;;;;21.85;14.10;;;;;;;-1.01;69.18;100857.84;1754599;80;21049;-55
2021/11/17 08:16:16;;;;;;;22.52;14.90;;;;;;;-0.90;69.30;100856.39;1755239;80;21506;-57
2021/11/17 08:18:43;;;;;;;20.50;14.53;;;;;;;-0.81;68.66;100857.00;1764164;80;27193;-57
2021/11/17 08:21:12;;;;;;;21.97;14.28;;;;;;;-0.74;68.59;100855.44;1764016;80;21584;-57
2021/11/17 08:23:40;;;;;;;22.67;15.10;;;;;;;-0.67;68.16;100858.19;1751536;80;21606;-57
2021/11/17 08:26:07;;;;;;;24.65;14.43;;;;;;;-0.57;68.39;100851.52;1768600;80;21571;-57
2021/11/17 08:28:35;;;;;;;23.38;13.90;;;;;;;-0.46;67.79;100851.75;1765160;80;21521;-57
2021/11/17 08:31:02;;;;;;;;;;;;;;;-0.37;67.58;100849.37;1755531;80;21788;-57
2021/11/17 08:33:29;;;;;;;18.67;13.68;;;;;;;-0.30;67.17;100854.23;1753116;80;20120;-56
2021/11/17 08:35:57;;;;;;;22.77;13.75;;;;;;;-0.30;67.25;100851.25;1760686;80;21607;-56
2021/11/17 08:38:24;;;;;;;;;;;;;;;-0.22;67.38;100845.80;1758067;80;21477;-56
2021/11/17 08:40:58;;;;;;;21.07;14.38;;;;;;;-0.07;66.99;100845.67;1762670;80;20442;-56
2021/11/17 08:43:27;;;;;;;25.48;13.83;;;;;;;0.01;67.02;100850.56;1756711;80;21761;-56
2021/11/17 08:45:54;;;;;;;23.85;14.50;;;;;;;0.14;66.55;100850.37;1755412;80;21511;-57
2021/11/17 08:48:24;;;;;;;21.57;13.28;;;;;;;0.27;66.19;100843.30;1752776;79;21475;-56
2021/11/17 08:50:54;;;;;;;20.82;13.85;;;;;;;0.33;65.92;100845.98;1751281;80;21660;-55
2021/11/17 08:53:22;;;;;;;20.35;13.85;;;;;;;0.43;65.44;100843.56;1731481;80;21005;-55
2021/11/17 08:55:48;;;;;;;19.87;13.13;;;;;;;0.43;65.41;100837.95;1693444;83;21800;-55
2021/11/17 08:58:16;;;;;;;18.20;12.47;;;;;;;0.49;65.20;100834.20;1690661;83;21487;-55
2021/11/17 09:00:45;;;;;;;19.25;12.30;;;;;;;0.51;65.32;100836.80;1696313;83;21527;-54
2021/11/17 09:03:12;;;;;;;17.00;11.55;;;;;;;0.62;64.89;100831.38;1694087;83;21542;-54
2021/11/17 09:05:48;;;;;;;15.23;11.23;;;;;;;0.70;64.33;100831.10;1697311;83;21628;-54
2021/11/17 09:08:16;;;;;;;20.43;11.47;;;;;;;0.82;63.76;100825.67;1693448;83;22121;-54
2021/11/17 09:10:47;;;;;;;18.12;11.25;;;;;;;0.93;63.66;100821.53;1697812;83;21586;-55
2021/11/17 09:13:14;;;;;;;17.12;11.60;;;;;;;1.04;63.00;100820.41;1694432;83;21492;-55
2021/11/17 09:15:43;;;;;;;15.45;11.70;;;;;;;1.19;62.98;100815.44;1702473;83;21648;-56
2021/11/17 09:18:10;;;;;;;21.90;11.05;;;;;;;1.49;62.92;100810.23;1698521;83;21702;-56
2021/11/17 09:20:37;;;;;;;15.80;9.63;;;;;;;1.97;62.28;100804.30;1695663;83;21787;-55
2021/11/17 09:23:06;;;;;;;14.47;8.87;;;;;;;2.57;61.49;100800.99;1699754;83;21510;-55
2021/11/17 09:25:33;;;;;;;13.00;9.45;;;;;;;3.15;60.03;100798.81;1693481;82;21549;-56
2021/11/17 09:27:59;;;;;;;14.30;8.73;;;;;;;3.75;58.82;100794.30;1712603;82;21411;-57
2021/11/17 09:30:28;;;;;;;12.10;8.28;;;;;;;4.24;57.13;100791.41;1691722;83;21510;-56
2021/11/17 09:33:00;;;;;;;11.22;8.65;;;;;;;4.67;56.25;100782.32;1704112;82;21809;-56
2021/11/17 09:35:31;;;;;;;11.20;7.62;;;;;;;5.03;55.21;100784.45;1680772;83;21522;-56
2021/11/17 09:37:56;;;;;;;16.02;8.65;;;;;;;5.42;53.92;100781.28;1690182;83;21514;-56
2021/11/17 09:40:34;;;;;;;11.73;8.65;;;;;;;5.76;52.31;100779.83;1723896;82;21549;-55
2021/11/17 09:43:02;;;;;;;10.43;9.25;;;;;;;5.97;51.14;100776.71;1703220;82;21024;-55
2021/11/17 09:45:29;;;;;;;12.37;9.53;;;;;;;6.08;51.01;100773.59;1699614;82;21881;-56
2021/11/17 09:48:00;;;;;;;12.18;9.48;;;;;;;6.33;50.64;100769.52;1698154;83;21415;-55
2021/11/17 09:50:35;;;;;;;12.20;9.20;;;;;;;6.76;50.09;100763.94;1725451;82;20990;-56
2021/11/17 09:53:10;;;;;;;11.00;8.45;;;;;;;7.23;49.25;100755.18;1708296;83;21571;-55
2021/11/17 09:55:51;;;;;;;12.80;8.88;;;;;;;7.76;47.54;100758.45;1702381;83;20994;-56
2021/11/17 09:58:32;;;;;;;13.03;9.78;;;;;;;8.25;44.65;100763.44;1704710;83;21807;-56
2021/11/17 10:01:23;;;;;;;15.10;10.20;;;;;;;8.51;44.42;100760.86;1700008;83;21478;-56
2021/11/17 10:04:10;;;;;;;15.80;10.55;;;;;;;8.55;42.72;100749.00;1703626;83;21364;-56
2021/11/17 10:11:04;;;;;;;11.93;9.63;;;;;;;9.27;42.73;100741.56;1730681;82;21502;-56
2021/11/17 10:12:56;;;;;;;14.70;10.75;;;;;;;9.64;40.98;100736.84;1697317;83;21699;-57
2021/11/17 10:15:22;;;;;;;21.00;11.55;;;;;;;9.83;41.09;100743.02;1736267;82;20962;-56
2021/11/17 10:17:58;;;;;;;24.72;15.05;;;;;;;9.62;40.62;100741.72;1731486;82;21447;-56
2021/11/17 10:20:38;;;;;;;17.55;12.95;;;;;;;9.38;41.14;100736.53;1731675;82;21510;-56
2021/11/17 10:23:16;;;;;;;22.37;15.38;;;;;;;9.07;41.06;100739.77;1733311;82;21013;-55
2021/11/17 10:25:48;;;;;;;14.35;10.15;;;;;;;8.94;41.01;100739.13;1721295;82;22047;-55
2021/11/17 10:28:28;;;;;;;17.32;11.68;;;;;;;9.19;40.89;100736.89;1709502;83;21589;-55
2021/11/17 10:31:04;;;;;;;13.30;9.95;;;;;;;9.49;39.87;100733.23;1691976;83;21491;-56
2021/11/17 10:34:10;;;;;;;13.18;10.35;;;;;;;9.79;39.35;100730.85;1719105;82;21009;-57
2021/11/17 10:36:55;;;;;;;14.98;9.20;;;;;;;10.36;38.75;100719.03;1717905;82;21578;-55
2021/11/17 10:39:39;;;;;;;14.47;9.68;;;;;;;11.12;37.31;100711.36;1721947;82;21440;-56
2021/11/17 10:42:22;;;;;;;13.22;9.75;;;;;;;11.52;36.25;100712.38;1747035;80;21052;-56
2021/11/17 10:44:59;;;;;;;11.57;9.15;;;;;;;11.87;35.69;100703.87;1748803;80;21474;-55
2021/11/17 10:47:36;;;;;;;9.15;7.95;;;;;;;12.36;34.91;100702.31;1738365;80;21581;-56
2021/11/17 10:50:27;;;;;;;12.98;8.85;;;;;;;12.83;33.92;100701.60;1756343;80;21529;-56
2021/11/17 10:53:08;;;;;;;11.10;7.60;;;;;;;13.41;32.78;100705.22;1748949;80;21428;-56
2021/11/17 10:55:53;;;;;;;10.98;8.05;;;;;;;13.80;32.15;100691.41;1741988;80;21530;-55
2021/11/17 10:58:24;;;;;;;11.68;8.70;;;;;;;14.18;30.96;100677.98;1755066;80;21640;-55
2021/11/17 11:00:58;;;;;;;9.53;8.13;;;;;;;14.51;30.39;100673.97;1709633;82;21085;-56
2021/11/17 11:03:24;;;;;;;10.28;7.70;;;;;;;14.87;29.94;100675.50;1748917;80;21495;-56
2021/11/17 11:05:59;;;;;;;10.20;8.23;;;;;;;15.09;29.34;100676.73;1745033;80;21746;-60
2021/11/17 11:08:34;;;;;;;10.53;7.65;;;;;;;15.30;29.19;100665.62;1732693;80;21554;-59
2021/11/17 11:11:02;;;;;;;34.70;20.70;;;;;;;15.45;29.02;100666.70;1755114;80;21467;-57
2021/11/17 11:13:44;;;;;;;15.63;11.10;;;;;;;15.55;28.20;100666.65;1750477;80;21470;-56
2021/11/17 11:16:16;;;;;;;9.58;8.18;;;;;;;15.47;27.80;100654.71;1732105;80;21554;-56
2021/11/17 11:18:52;;;;;;;29.50;17.07;;;;;;;15.65;27.91;100649.87;1752965;80;21793;-57
2021/11/17 11:21:40;;;;;;;22.85;14.18;;;;;;;15.74;27.84;100649.91;1719136;80;21537;-56
2021/11/17 11:24:36;;;;;;;13.13;9.20;;;;;;;15.05;28.11;100650.44;1745535;80;21566;-56
2021/11/17 11:27:08;;;;;;;12.30;8.93;;;;;;;13.74;29.54;100641.44;1751670;80;21470;-57
2021/11/17 11:29:40;;;;;;;13.35;9.15;;;;;;;12.47;30.96;100646.57;1750917;80;21507;-57
2021/11/17 11:32:16;;;;;;;11.00;9.18;;;;;;;11.72;31.76;100650.34;1747825;80;21779;-57
2021/11/17 11:35:09;;;;;;;13.15;9.73;;;;;;;11.04;32.33;100640.06;1731347;80;21416;-56
2021/11/17 11:37:43;;;;;;;13.93;10.20;;;;;;;10.42;32.84;100639.57;1747910;80;21534;-57
2021/11/17 11:40:21;;;;;;;26.82;13.72;;;;;;;10.08;33.56;100640.86;1753127;80;21475;-57
2021/11/17 11:43:20;;;;;;;34.53;17.55;;;;;;;9.85;33.98;100630.89;1712220;82;21545;-57
2021/11/17 11:45:50;;;;;;;12.03;9.38;;;;;;;9.73;34.32;100642.09;1726383;82;21872;-57
2021/11/17 11:48:44;;;;;;;16.15;10.00;;;;;;;9.59;34.42;100637.64;1726600;82;21502;-56
2021/11/17 11:51:41;;;;;;;12.93;10.50;;;;;;;9.40;34.61;100639.81;1720883;82;21616;-57
2021/11/17 11:54:19;;;;;;;12.80;9.70;;;;;;;9.09;34.73;100640.91;1735043;82;21515;-57
2021/11/17 11:57:04;;;;;;;17.42;9.78;;;;;;;8.83;35.25;100637.05;1722920;82;21597;-57
2021/11/17 11:59:30;;;;;;;15.72;11.15;;;;;;;8.57;35.51;100631.88;1725321;81;21777;-57
2021/11/17 12:02:10;;;;;;;;;;;;;;;8.20;35.91;100623.78;1732877;82;21442;-56
2021/11/17 12:04:43;;;;;;;14.00;10.35;;;;;;;7.91;36.69;100623.83;1693266;82;20429;-56
2021/11/17 12:07:19;;;;;;;16.25;10.63;;;;;;;7.67;36.86;100621.59;1723330;82;21045;-56
2021/11/17 12:10:21;;;;;;;21.75;10.95;;;;;;;7.49;37.34;100630.58;1731540;82;21652;-56
2021/11/17 12:12:49;;;;;;;14.05;9.88;;;;;;;7.20;37.80;100624.86;1722811;81;22075;-57
2021/11/17 12:15:33;;;;;;;15.72;10.68;;;;;;;6.81;38.09;100617.92;1727489;82;21557;-57
2021/11/17 12:18:15;;;;;;;18.83;10.83;;;;;;;6.63;38.49;100616.41;1730170;81;21495;-57
2021/11/17 12:20:50;;;;;;;18.50;12.18;;;;;;;6.52;38.71;100617.41;1721190;82;21447;-56
2021/11/17 12:23:22;;;;;;;17.27;11.50;;;;;;;6.40;38.79;100612.73;1724867;82;21523;-55
2021/11/17 12:26:02;;;;;;;34.75;20.23;;;;;;;6.28;39.26;100614.60;1732800;82;21726;-59
2021/11/17 12:28:30;;;;;;;21.48;16.37;;;;;;;6.09;39.52;100613.91;1701141;81;21444;-58
2021/11/17 12:31:05;;;;;;;23.02;14.50;;;;;;;5.93;39.81;100611.38;1731922;82;21648;-57
2021/11/17 12:33:42;;;;;;;17.70;12.93;;;;;;;5.80;40.03;100609.73;1728525;82;21593;-57
2021/11/17 12:36:16;;;;;;;;;;;;;;;5.70;40.37;100601.12;1729481;81;21675;-57
2021/11/17 12:38:44;;;;;;;20.32;12.60;;;;;;;5.55;41.35;100601.23;1731032;81;20837;-58
2021/11/17 12:41:29;;;;;;;19.45;12.82;;;;;;;5.42;41.32;100604.36;1714524;82;21593;-57
2021/11/17 12:44:10;;;;;;;18.48;13.22;;;;;;;5.31;41.61;100610.94;1719065;82;21672;-55
2021/11/17 12:46:47;;;;;;;17.82;12.60;;;;;;;5.15;41.75;100617.98;1715395;82;21491;-56
2021/11/17 12:49:23;;;;;;;21.45;13.90;;;;;;;5.04;41.83;100606.30;1713949;82;27128;-56
2021/11/17 12:52:21;;;;;;;20.23;13.20;;;;;;;4.97;42.11;100607.23;1717619;82;21506;-56
2021/11/17 12:55:12;;;;;;;23.10;14.05;;;;;;;4.88;42.17;100612.48;1721922;82;21479;-55
2021/11/17 12:57:46;;;;;;;17.52;12.23;;;;;;;4.79;42.25;100612.51;1728840;82;20968;-55
2021/11/17 13:00:33;;;;;;;22.95;13.55;;;;;;;4.63;42.33;100598.23;1729170;81;21574;-56
2021/11/17 13:03:04;;;;;;;20.62;12.78;;;;;;;4.56;42.41;100600.42;1726651;82;21558;-56
2021/11/17 13:05:37;;;;;;;18.50;12.95;;;;;;;4.53;42.71;100598.27;1712263;82;21872;-56
2021/11/17 13:08:11;;;;;;;20.12;13.20;;;;;;;4.43;42.68;100601.33;1721657;82;21561;-56
2021/11/17 13:10:59;;;;;;;15.25;11.85;;;;;;;4.29;42.93;100597.02;1707063;81;21524;-56
2021/11/17 13:13:29;;;;;;;18.37;11.80;;;;;;;4.08;43.46;100601.80;1719846;82;21720;-56
2021/11/17 13:16:13;;;;;;;19.12;12.05;;;;;;;3.90;43.53;100598.79;1713501;82;21546;-56
2021/11/17 13:18:48;;;;;;;17.62;11.08;;;;;;;3.71;43.79;100594.43;1719915;82;21435;-56
2021/11/17 13:21:29;;;;;;;15.55;9.88;;;;;;;3.52;44.19;100601.35;1721348;81;21034;-55
2021/11/17 13:24:10;;;;;;;16.30;9.63;;;;;;;3.38;44.33;100603.94;1714903;82;21526;-55
2021/11/17 13:26:48;;;;;;;14.63;10.25;;;;;;;3.22;44.59;100606.95;1716074;82;21515;-54
2021/11/17 13:29:29;;;;;;;17.37;11.12;;;;;;;3.01;45.22;100606.43;1718617;82;21551;-55
2021/11/17 13:32:17;;;;;;;17.40;10.60;;;;;;;2.84;45.39;100602.91;1718104;80;22123;-57
2021/11/17 13:34:48;;;;;;;16.00;9.98;;;;;;;2.72;45.61;100603.73;1717309;82;21605;-56
2021/11/17 13:37:39;;;;;;;17.90;11.10;;;;;;;2.62;45.93;100599.34;1714673;80;21582;-56
2021/11/17 13:40:10;;;;;;;15.05;10.20;;;;;;;2.52;45.96;100597.13;1701076;82;22075;-55
2021/11/17 13:42:38;;;;;;;13.68;10.50;;;;;;;2.35;46.25;100600.92;1702112;82;21526;-56
2021/11/17 13:45:10;;;;;;;17.55;10.40;;;;;;;2.23;46.56;100596.97;1698388;82;21813;-57
2021/11/17 13:47:37;;;;;;;20.12;10.40;;;;;;;2.13;46.85;100593.02;1701544;82;21487;-55
2021/11/17 13:50:05;;;;;;;16.50;11.22;;;;;;;2.08;47.12;100592.55;1698446;82;21530;-55
2021/11/17 13:53:30;;;;;;;17.07;11.20;;;;;;;2.03;47.60;100580.83;1785752;78;23132;-58
2021/11/17 13:56:08;;;;;;;16.15;10.65;;;;;;;1.95;47.46;100587.25;1762048;80;21538;-59
2021/11/17 13:58:35;;;;;;;12.75;9.93;;;;;;;1.86;47.88;100588.91;1761657;80;21573;-59
2021/11/17 14:01:03;;;;;;;19.23;10.30;;;;;;;1.71;48.22;100578.88;1767369;80;21396;-55
2021/11/17 14:03:31;;;;;;;14.80;9.93;;;;;;;1.62;48.48;100575.31;1763269;80;21407;-55
2021/11/17 14:06:03;;;;;;;15.20;10.58;;;;;;;1.55;48.70;100578.30;1765079;80;21077;-55
2021/11/17 14:08:28;;;;;;;20.37;10.45;;;;;;;1.51;48.79;100576.11;1766320;80;21514;-55
2021/11/17 14:10:54;;;;;;;17.05;10.72;;;;;;;1.40;49.08;100575.58;1768024;80;21612;-55
2021/11/17 14:13:22;;;;;;;12.98;10.75;;;;;;;1.36;49.19;100578.12;1769002;80;21469;-55
2021/11/17 14:15:48;;;;;;;17.02;12.07;;;;;;;1.30;49.47;100578.08;1761588;80;21479;-55
2021/11/17 14:18:15;;;;;;;18.98;11.88;;;;;;;1.24;49.52;100575.83;1767329;80;21095;-55
2021/11/17 14:20:42;;;;;;;18.05;11.90;;;;;;;1.20;49.89;100580.55;1760655;80;21537;-56
2021/11/17 14:23:08;;;;;;;18.45;11.75;;;;;;;1.12;49.87;100574.85;1758648;80;21818;-55
2021/11/17 14:25:36;;;;;;;21.27;12.10;;;;;;;1.05;50.16;100574.77;1770153;80;21124;-54
2021/11/17 14:28:07;;;;;;;20.57;12.30;;;;;;;0.98;50.28;100573.85;1773782;80;21451;-54
2021/11/17 14:30:47;;;;;;;20.65;13.32;;;;;;;0.89;50.63;100577.20;1770838;80;21753;-55
2021/11/17 14:33:18;;;;;;;19.67;12.65;;;;;;;0.82;50.78;100575.81;1742282;80;21402;-55
2021/11/17 14:35:45;;;;;;;19.55;12.90;;;;;;;0.74;51.09;100570.12;1746350;80;21817;-56